Time;durP1;ratioP1;P1;durP2;ratioP2;P2;SDS_P1;SDS_P2;PMS_P1;PMS_P2;Temp;Humidity;BMP_temperature;BMP_pressure;BME280_temperature;BME280_humidity;BME280_pressure;Samples;Min_cycle;Max_cycle;Signal;HPM_P1;HPM_P2
2023/01/24 00:00:19;;;;;;;30.75;21.20;;;;;;;2.37;100.00;103771.72;1016616;29;20315;-76
2023/01/24 00:00:51;;;;;;;31.77;21.05;;;;;;;2.38;100.00;103781.31;1022002;28;20310;-76
2023/01/24 00:01:23;;;;;;;28.88;21.58;;;;;;;2.38;100.00;103786.56;1020459;29;20379;-75
2023/01/24 00:01:55;;;;;;;28.75;22.35;;;;;;;2.32;100.00;103782.53;1020669;29;20299;-76
2023/01/24 00:02:27;;;;;;;28.08;21.45;;;;;;;2.36;100.00;103784.03;1016111;29;20304;-76
2023/01/24 00:03:00;;;;;;;30.77;21.63;;;;;;;2.38;100.00;103781.31;1017071;29;20308;-76
2023/01/24 00:03:31;;;;;;;30.33;21.23;;;;;;;2.35;100.00;103779.72;1024769;28;20354;-75
2023/01/24 00:04:03;;;;;;;31.73;20.88;;;;;;;2.38;100.00;103778.69;1028514;28;20305;-76
2023/01/24 00:04:35;;;;;;;27.83;21.20;;;;;;;2.39;100.00;103777.75;1027741;28;20360;-76
2023/01/24 00:05:07;;;;;;;31.92;22.17;;;;;;;2.37;100.00;103779.63;1020456;29;20299;-75
2023/01/24 00:05:39;;;;;;;28.42;21.88;;;;;;;2.39;100.00;103777.75;1023630;29;20295;-75
2023/01/24 00:06:12;;;;;;;24.60;20.63;;;;;;;2.40;100.00;103776.81;1024563;28;20303;-76
2023/01/24 00:06:43;;;;;;;26.80;19.65;;;;;;;2.37;100.00;103777.84;1024436;28;20302;-76
2023/01/24 00:07:15;;;;;;;28.55;21.30;;;;;;;2.39;100.00;103777.75;1031990;28;20297;-76
2023/01/24 00:07:46;;;;;;;27.17;20.23;;;;;;;2.38;100.00;103770.78;1027876;28;20347;-76
2023/01/24 00:08:19;;;;;;;31.13;22.42;;;;;;;2.41;100.00;103775.88;1020171;29;20304;-76
2023/01/24 00:08:52;;;;;;;31.30;21.75;;;;;;;2.42;100.00;103772.31;1016097;29;20323;-75
2023/01/24 00:09:24;;;;;;;28.27;21.17;;;;;;;2.43;100.00;103779.25;1014597;29;20301;-76
2023/01/24 00:09:56;;;;;;;28.02;21.05;;;;;;;2.43;100.00;103768.72;1021272;28;20382;-75
2023/01/24 00:10:29;;;;;;;29.90;20.60;;;;;;;2.40;100.00;103768.91;1025076;28;20766;-76
2023/01/24 00:11:02;;;;;;;32.85;21.73;;;;;;;2.41;100.00;103767.97;1031969;28;20782;-76
2023/01/24 00:11:34;;;;;;;26.35;20.27;;;;;;;2.40;100.00;103764.50;1023718;29;20673;-76
2023/01/24 00:12:08;;;;;;;29.98;21.77;;;;;;;2.37;100.00;103769.09;1020675;29;20303;-76
2023/01/24 00:12:40;;;;;;;28.08;20.65;;;;;;;2.37;100.00;103769.09;1023522;29;21336;-76
2023/01/24 00:13:12;;;;;;;32.45;24.10;;;;;;;2.36;100.00;103767.41;1020879;29;20331;-76
2023/01/24 00:13:44;;;;;;;29.00;20.38;;;;;;;2.36;100.00;103767.41;1025124;28;20310;-75
2023/01/24 00:14:16;;;;;;;30.05;20.25;;;;;;;2.34;100.00;103771.91;1027275;28;20861;-76
2023/01/24 00:14:47;;;;;;;27.27;18.95;;;;;;;2.34;100.00;103761.41;1024623;28;20354;-76
2023/01/24 00:15:19;;;;;;;27.58;20.52;;;;;;;2.32;100.00;103768.53;1021611;29;20352;-76
2023/01/24 00:15:51;;;;;;;28.23;21.25;;;;;;;2.33;100.00;103762.34;1024012;28;20314;-76
2023/01/24 00:16:23;;;;;;;30.45;20.42;;;;;;;2.32;100.00;103761.50;1024464;28;20306;-76
2023/01/24 00:16:54;;;;;;;32.67;22.15;;;;;;;2.31;100.00;103758.94;1020238;29;20763;-76
2023/01/24 00:17:26;;;;;;;30.67;22.50;;;;;;;2.32;100.00;103765.91;1023688;29;20309;-76
2023/01/24 00:17:58;;;;;;;28.60;22.05;;;;;;;2.31;100.00;103765.06;1024394;28;20314;-75
2023/01/24 00:18:32;;;;;;;31.38;23.95;;;;;;;2.31;100.00;103766.84;1020205;29;20299;-76
2023/01/24 00:19:04;;;;;;;28.58;22.08;;;;;;;2.35;100.00;103761.31;1025537;28;20442;-76
2023/01/24 00:19:35;;;;;;;31.55;23.23;;;;;;;2.29;100.00;103759.03;1027154;28;20313;-76
2023/01/24 00:20:08;;;;;;;30.13;20.80;;;;;;;2.35;100.00;103760.47;1029726;28;20293;-74
2023/01/24 00:20:42;;;;;;;35.05;22.38;;;;;;;2.34;100.00;103766.66;1027827;28;20302;-76
2023/01/24 00:21:15;;;;;;;29.70;21.67;;;;;;;2.36;100.00;103767.41;1019385;29;20319;-76
2023/01/24 00:21:47;;;;;;;28.85;20.58;;;;;;;2.37;100.00;103763.84;1020045;29;20307;-76
2023/01/24 00:22:18;;;;;;;30.48;21.27;;;;;;;2.39;100.00;103754.06;1020906;29;20302;-76
2023/01/24 00:22:50;;;;;;;29.27;20.83;;;;;;;2.42;100.00;103756.53;1025310;28;20625;-76
2023/01/24 00:23:22;;;;;;;29.13;20.38;;;;;;;2.39;100.00;103761.97;1027591;28;20302;-75
2023/01/24 00:23:54;;;;;;;29.23;22.38;;;;;;;2.42;100.00;103761.78;1023944;28;20310;-76
2023/01/24 00:24:26;;;;;;;25.48;19.83;;;;;;;2.39;100.00;103768.06;1024057;29;20301;-76
2023/01/24 00:24:58;;;;;;;26.83;21.77;;;;;;;2.34;100.00;103764.88;1024360;28;20307;-76
2023/01/24 00:25:30;;;;;;;29.25;21.05;;;;;;;2.36;100.00;103756.88;1024446;28;20299;-76
2023/01/24 00:26:01;;;;;;;28.77;21.27;;;;;;;2.31;100.00;103766.84;1028594;28;20302;-76
2023/01/24 00:26:33;;;;;;;27.02;20.60;;;;;;;2.39;100.00;103764.59;1027390;28;20301;-76
2023/01/24 00:27:04;;;;;;;31.10;22.73;;;;;;;2.40;100.00;103766.28;1020254;29;20299;-76
2023/01/24 00:27:36;;;;;;;27.67;20.35;;;;;;;2.37;100.00;103764.69;1019593;29;20346;-76
2023/01/24 00:28:07;;;;;;;24.38;18.80;;;;;;;2.36;100.00;103762.16;1019990;29;20303;-76
2023/01/24 00:28:39;;;;;;;25.27;19.80;;;;;;;2.37;100.00;103766.47;1024685;28;20321;-76
2023/01/24 00:29:11;;;;;;;24.88;20.13;;;;;;;2.37;100.00;103759.44;1027785;28;20305;-76
2023/01/24 00:29:42;;;;;;;26.15;21.15;;;;;;;2.36;100.00;103759.53;1032108;28;20357;-76
2023/01/24 00:30:15;;;;;;;26.60;19.58;;;;;;;2.41;100.00;103754.81;1027857;28;20302;-75
2023/01/24 00:30:46;;;;;;;28.42;19.95;;;;;;;2.41;100.00;103760.94;1028293;28;20301;-76
2023/01/24 00:31:18;;;;;;;25.65;19.13;;;;;;;2.43;100.00;103763.47;1028028;28;20823;-76
2023/01/24 00:31:50;;;;;;;27.90;20.23;;;;;;;2.43;100.00;103758.22;1023277;29;20302;-76
2023/01/24 00:32:22;;;;;;;25.63;20.65;;;;;;;2.45;100.00;103764.22;1016009;29;20339;-76
2023/01/24 00:32:53;;;;;;;27.92;20.08;;;;;;;2.43;100.00;103752.94;1015642;29;20356;-76
2023/01/24 00:33:25;;;;;;;25.08;21.05;;;;;;;2.39;100.00;103749.66;1015360;29;20797;-76
2023/01/24 00:33:57;;;;;;;29.27;22.35;;;;;;;2.42;100.00;103759.16;1021056;28;20318;-76
2023/01/24 00:34:28;;;;;;;28.60;20.02;;;;;;;2.42;100.00;103756.53;1024296;28;20378;-76
2023/01/24 00:35:00;;;;;;;28.52;21.33;;;;;;;2.42;100.00;103756.53;1024261;28;20298;-76
2023/01/24 00:35:31;;;;;;;25.70;19.85;;;;;;;2.38;100.00;103750.59;1027736;28;20313;-76
2023/01/24 00:36:03;;;;;;;26.23;19.65;;;;;;;2.31;100.00;103758.94;1023836;28;20804;-76
2023/01/24 00:36:35;;;;;;;26.45;19.30;;;;;;;2.33;100.00;103752.66;1024488;28;20662;-76
2023/01/24 00:37:07;;;;;;;24.60;17.55;;;;;;;2.34;100.00;103748.25;1018994;29;20351;-76
2023/01/24 00:37:40;;;;;;;26.15;18.33;;;;;;;2.33;100.00;103757.06;1019640;29;20388;-75
2023/01/24 00:38:11;;;;;;;27.30;19.00;;;;;;;2.33;100.00;103757.06;1019966;29;20693;-76
2023/01/24 00:38:43;;;;;;;25.67;18.50;;;;;;;2.36;100.00;103756.88;1020510;28;20307;-76
2023/01/24 00:39:15;;;;;;;31.60;20.48;;;;;;;2.39;100.00;103751.44;1020194;29;20813;-76
2023/01/24 00:39:47;;;;;;;24.08;18.73;;;;;;;2.37;100.00;103748.06;1019953;29;20307;-76
2023/01/24 00:40:18;;;;;;;27.35;18.50;;;;;;;2.33;100.00;103752.66;1020199;29;20295;-76
2023/01/24 00:40:50;;;;;;;25.42;17.75;;;;;;;2.36;100.00;103752.47;1023745;29;20306;-76
2023/01/24 00:41:21;;;;;;;28.83;19.40;;;;;;;2.36;100.00;103751.63;1018536;29;20790;-75
2023/01/24 00:41:56;;;;;;;23.77;16.77;;;;;;;2.32;100.00;103755.38;1020493;29;20300;-76
2023/01/24 00:42:27;;;;;;;24.23;18.20;;;;;;;2.34;100.00;103753.50;1023785;28;20302;-75
2023/01/24 00:42:59;;;;;;;25.00;17.42;;;;;;;2.34;100.00;103743.84;1020345;29;20307;-76
2023/01/24 00:43:31;;;;;;;24.08;17.13;;;;;;;2.29;100.00;103750.31;1019453;29;20690;-76
2023/01/24 00:44:02;;;;;;;25.60;17.77;;;;;;;2.31;100.00;103756.31;1019803;29;20681;-76
2023/01/24 00:44:34;;;;;;;24.92;17.95;;;;;;;2.29;100.00;103750.31;1015974;29;20737;-75
2023/01/24 00:45:07;;;;;;;23.35;17.95;;;;;;;2.28;100.00;103753.88;1017047;29;20308;-75
2023/01/24 00:45:39;;;;;;;24.25;17.63;;;;;;;2.31;100.00;103743.16;1021686;28;20314;-75
2023/01/24 00:46:11;;;;;;;25.33;19.08;;;;;;;2.31;100.00;103753.69;1024141;28;20317;-75
2023/01/24 00:46:43;;;;;;;25.50;18.30;;;;;;;2.30;100.00;103741.47;1027753;28;20298;-76
2023/01/24 00:47:15;;;;;;;25.25;20.25;;;;;;;2.25;100.00;103744.38;1019058;29;20314;-75
2023/01/24 00:47:47;;;;;;;26.92;18.98;;;;;;;2.31;100.00;103741.38;1020048;29;20311;-76
2023/01/24 00:48:19;;;;;;;24.63;17.75;;;;;;;2.26;100.00;103745.22;1019228;29;20303;-75
2023/01/24 00:48:50;;;;;;;25.33;17.00;;;;;;;2.25;100.00;103747.00;1016950;29;20312;-75
2023/01/24 00:49:22;;;;;;;22.33;16.85;;;;;;;2.28;100.00;103744.19;1019462;29;20927;-76
2023/01/24 00:49:54;;;;;;;23.38;16.58;;;;;;;2.21;100.00;103742.88;1011671;29;20324;-76
2023/01/24 00:50:26;;;;;;;25.10;15.88;;;;;;;2.27;100.00;103746.94;1015824;29;20703;-75
2023/01/24 00:50:58;;;;;;;22.23;16.80;;;;;;;2.25;100.00;103744.38;1019548;29;20295;-75
2023/01/24 00:51:29;;;;;;;21.67;17.00;;;;;;;2.29;100.00;103734.53;1016512;29;20323;-75
2023/01/24 00:52:01;;;;;;;22.65;16.70;;;;;;;2.30;100.00;103736.22;1019831;29;20296;-76
2023/01/24 00:52:33;;;;;;;20.33;15.82;;;;;;;2.31;100.00;103738.75;1016513;29;20663;-75
2023/01/24 00:53:05;;;;;;;22.88;17.33;;;;;;;2.27;100.00;103734.63;1019442;29;20315;-76
2023/01/24 00:53:36;;;;;;;21.15;14.88;;;;;;;2.30;100.00;103730.97;1022392;29;20315;-75
2023/01/24 00:54:08;;;;;;;23.67;17.13;;;;;;;2.30;100.00;103730.97;1019504;29;20307;-75
2023/01/24 00:54:40;;;;;;;22.05;16.48;;;;;;;2.27;100.00;103741.66;1023527;29;20762;-75
2023/01/24 00:55:11;;;;;;;21.60;14.90;;;;;;;2.27;100.00;103731.16;1027494;28;20847;-75
2023/01/24 00:55:44;;;;;;;17.65;14.65;;;;;;;2.23;100.00;103737.53;1027733;28;20784;-76
2023/01/24 00:56:16;;;;;;;20.50;16.23;;;;;;;2.29;100.00;103734.53;1028353;28;20302;-75
2023/01/24 00:56:47;;;;;;;18.58;15.68;;;;;;;2.26;100.00;103734.72;1027592;28;20301;-75
2023/01/24 00:57:21;;;;;;;21.48;17.35;;;;;;;2.31;100.00;103737.91;1019346;29;20414;-76
2023/01/24 00:57:52;;;;;;;19.23;14.40;;;;;;;2.29;100.00;103734.53;1015895;29;20318;-75
2023/01/24 00:58:24;;;;;;;20.42;13.80;;;;;;;2.29;100.00;103730.13;1016007;29;20308;-75
2023/01/24 00:58:56;;;;;;;21.88;15.27;;;;;;;2.31;100.00;103738.75;1013029;29;20834;-75
2023/01/24 00:59:27;;;;;;;22.17;16.02;;;;;;;2.26;100.00;103732.94;1020192;29;20307;-75
2023/01/24 00:59:59;;;;;;;17.27;13.25;;;;;;;2.29;100.00;103740.63;1015674;29;20305;-75
2023/01/24 01:00:30;;;;;;;18.05;14.90;;;;;;;2.32;100.00;103736.97;1016285;29;20316;-75
2023/01/24 01:01:03;;;;;;;18.90;15.25;;;;;;;2.34;100.00;103737.72;1018306;29;20311;-76
2023/01/24 01:01:34;;;;;;;24.90;15.18;;;;;;;2.32;100.00;103735.19;1015840;29;20300;-75
2023/01/24 01:02:07;;;;;;;20.42;14.77;;;;;;;2.31;100.00;103736.13;1019418;29;20319;-76
2023/01/24 01:02:39;;;;;;;20.48;14.30;;;;;;;2.30;100.00;103731.81;1020960;28;20796;-76
2023/01/24 01:03:17;;;;;;;21.83;15.70;;;;;;;2.30;100.00;103742.31;1027812;28;20298;-75
2023/01/24 01:03:49;;;;;;;20.30;15.27;;;;;;;2.32;100.00;103734.34;1025089;28;20302;-75
2023/01/24 01:04:21;;;;;;;21.55;16.27;;;;;;;2.31;100.00;103732.66;1023740;29;20298;-75
2023/01/24 01:04:53;;;;;;;20.35;15.25;;;;;;;2.31;100.00;103740.53;1015702;29;20304;-75
2023/01/24 01:05:25;;;;;;;19.40;13.85;;;;;;;2.27;100.00;103731.16;1015727;29;20327;-76
2023/01/24 01:06:03;;;;;;;19.70;13.15;;;;;;;2.25;100.00;103727.75;1016889;29;20312;-75
2023/01/24 01:06:35;;;;;;;20.73;14.48;;;;;;;2.25;100.00;103731.25;1025453;28;20310;-75
2023/01/24 01:07:07;;;;;;;19.85;14.05;;;;;;;2.26;100.00;103739.97;1023684;29;20669;-75
2023/01/24 01:07:40;;;;;;;20.65;14.75;;;;;;;2.30;100.00;103730.97;1019514;29;20311;-76
2023/01/24 01:08:11;;;;;;;17.52;13.50;;;;;;;2.29;100.00;103732.75;1020138;29;20311;-75
2023/01/24 01:08:43;;;;;;;18.60;14.13;;;;;;;2.31;100.00;103737.91;1016246;29;20312;-75
2023/01/24 01:09:16;;;;;;;16.75;13.73;;;;;;;2.29;100.00;103729.28;1016183;29;20806;-75
2023/01/24 01:09:48;;;;;;;21.33;14.45;;;;;;;2.26;100.00;103734.72;1018126;29;20300;-75
2023/01/24 01:10:19;;;;;;;18.58;14.00;;;;;;;2.25;100.00;103730.41;1019343;29;20295;-76
2023/01/24 01:10:51;;;;;;;18.90;13.93;;;;;;;2.25;100.00;103740.91;1024404;28;20306;-75
2023/01/24 01:11:23;;;;;;;18.20;14.10;;;;;;;2.20;100.00;103737.72;1027710;28;20302;-76
2023/01/24 01:11:55;;;;;;;18.75;14.10;;;;;;;2.21;100.00;103726.25;1023202;29;20303;-76
2023/01/24 01:12:27;;;;;;;19.63;14.00;;;;;;;2.26;100.00;103734.72;1020089;29;20438;-75
2023/01/24 01:12:59;;;;;;;15.60;12.20;;;;;;;2.23;100.00;103730.47;1023927;28;20310;-75
2023/01/24 01:13:30;;;;;;;20.17;13.48;;;;;;;2.26;100.00;103729.44;1024036;28;20302;-76
2023/01/24 01:14:02;;;;;;;18.40;12.95;;;;;;;2.25;100.00;103727.75;1024020;28;20421;-75
2023/01/24 01:14:34;;;;;;;15.85;12.68;;;;;;;2.19;100.00;103734.19;1027347;28;20298;-75
2023/01/24 01:15:06;;;;;;;20.35;13.02;;;;;;;2.15;100.00;103728.28;1023730;29;20438;-76
2023/01/24 01:15:38;;;;;;;14.38;10.65;;;;;;;2.14;100.00;103726.59;1024654;28;20302;-75
2023/01/24 01:16:12;;;;;;;17.45;11.98;;;;;;;2.14;100.00;103737.09;1023235;29;20318;-75
2023/01/24 01:16:45;;;;;;;16.23;13.07;;;;;;;2.20;100.00;103730.66;1019816;29;20299;-76
2023/01/24 01:17:17;;;;;;;15.95;14.10;;;;;;;2.20;100.00;103735.09;1020391;29;20315;-76
2023/01/24 01:17:49;;;;;;;16.63;13.88;;;;;;;2.23;100.00;103734.91;1018693;29;20825;-75
2023/01/24 01:18:20;;;;;;;16.48;12.20;;;;;;;2.21;100.00;103734.16;1016070;29;20300;-75
2023/01/24 01:18:54;;;;;;;15.32;12.80;;;;;;;2.21;100.00;103726.25;1022941;29;20306;-76
2023/01/24 01:19:26;;;;;;;16.60;11.38;;;;;;;2.18;100.00;103733.34;1017078;29;20371;-75
2023/01/24 01:19:58;;;;;;;17.85;14.13;;;;;;;2.18;100.00;103733.34;1024413;28;20298;-76
2023/01/24 01:20:30;;;;;;;18.85;13.77;;;;;;;2.14;100.00;103736.25;1027433;28;20668;-75
2023/01/24 01:21:02;;;;;;;17.27;13.50;;;;;;;2.22;100.00;103738.47;1027505;28;20385;-76
2023/01/24 01:21:33;;;;;;;18.33;13.18;;;;;;;2.24;100.00;103741.84;1019827;29;20363;-76
2023/01/24 01:22:07;;;;;;;17.10;14.30;;;;;;;2.23;100.00;103740.16;1023888;29;20796;-76
2023/01/24 01:22:38;;;;;;;17.25;12.63;;;;;;;2.21;100.00;103747.28;1024047;28;20303;-75
2023/01/24 01:23:10;;;;;;;14.95;11.45;;;;;;;2.10;100.00;103732.97;1024428;28;20322;-75
2023/01/24 01:23:42;;;;;;;17.70;12.98;;;;;;;2.08;100.00;103734.84;1023747;29;20413;-75
2023/01/24 01:24:14;;;;;;;17.27;12.13;;;;;;;2.07;100.00;103735.78;1018658;29;20303;-75
2023/01/24 01:24:46;;;;;;;20.00;14.75;;;;;;;2.06;100.00;103746.38;1019599;29;20311;-75
2023/01/24 01:25:18;;;;;;;16.60;11.82;;;;;;;2.06;100.00;103739.34;1019768;29;20303;-75
2023/01/24 01:25:50;;;;;;;16.00;12.45;;;;;;;2.07;100.00;103741.03;1019969;29;20689;-76
2023/01/24 01:26:22;;;;;;;16.05;12.23;;;;;;;2.08;100.00;103734.84;1020224;29;20384;-76
2023/01/24 01:26:53;;;;;;;15.68;12.48;;;;;;;2.08;100.00;103732.22;1016064;29;20304;-75
2023/01/24 01:27:25;;;;;;;15.88;11.77;;;;;;;2.07;100.00;103735.78;1016289;29;20303;-75
2023/01/24 01:27:57;;;;;;;18.13;12.63;;;;;;;2.08;100.00;103736.63;1015503;29;20304;-75
2023/01/24 01:28:29;;;;;;;17.02;12.57;;;;;;;2.07;100.00;103735.78;1023308;29;20767;-75
2023/01/24 01:29:00;;;;;;;16.13;13.65;;;;;;;2.07;100.00;103733.16;1019691;29;20673;-75
2023/01/24 01:29:33;;;;;;;16.33;13.43;;;;;;;2.07;100.00;103746.28;1019651;29;20356;-76
2023/01/24 01:30:05;;;;;;;19.25;14.80;;;;;;;2.06;100.00;103734.09;1019521;29;20319;-75
2023/01/24 01:30:37;;;;;;;16.35;12.82;;;;;;;2.05;100.00;103737.66;1017336;29;20423;-76
2023/01/24 01:31:08;;;;;;;20.20;13.02;;;;;;;2.05;100.00;103731.56;1020933;28;20351;-75
2023/01/24 01:31:40;;;;;;;20.92;14.85;;;;;;;2.06;100.00;103739.34;1027477;28;20807;-76
2023/01/24 01:32:12;;;;;;;21.63;15.10;;;;;;;2.07;100.00;103740.19;1023789;28;20677;-76
2023/01/24 01:32:44;;;;;;;18.30;14.02;;;;;;;2.06;100.00;103744.59;1027480;28;20792;-75
2023/01/24 01:33:15;;;;;;;19.02;13.32;;;;;;;2.08;100.00;103740.09;1027017;28;20302;-75
2023/01/24 01:33:47;;;;;;;17.85;13.07;;;;;;;2.10;100.00;103743.50;1015885;29;20356;-75
2023/01/24 01:34:19;;;;;;;19.63;14.60;;;;;;;2.12;100.00;103749.50;1019510;29;20295;-75
2023/01/24 01:34:50;;;;;;;18.20;13.85;;;;;;;2.12;100.00;103744.25;1020024;29;20860;-76
2023/01/24 01:35:23;;;;;;;20.38;14.38;;;;;;;2.11;100.00;103741.69;1020539;28;20386;-76
2023/01/24 01:35:55;;;;;;;18.90;14.55;;;;;;;2.11;100.00;103742.53;1023676;29;20307;-75
2023/01/24 01:36:26;;;;;;;19.33;15.10;;;;;;;2.13;100.00;103740.66;1020419;29;20303;-75
2023/01/24 01:36:58;;;;;;;17.80;13.65;;;;;;;2.15;100.00;103745.84;1019773;29;20314;-76
2023/01/24 01:37:29;;;;;;;19.98;15.60;;;;;;;2.16;100.00;103745.75;1019933;29;20304;-75
2023/01/24 01:38:01;;;;;;;18.30;14.77;;;;;;;2.16;100.00;103740.50;1020303;29;20347;-75
2023/01/24 01:38:33;;;;;;;19.55;14.32;;;;;;;2.13;100.00;103739.81;1022995;29;20314;-75
2023/01/24 01:39:05;;;;;;;16.73;13.65;;;;;;;2.06;100.00;103749.03;1019585;29;20295;-76
2023/01/24 01:39:37;;;;;;;18.40;14.70;;;;;;;2.05;100.00;103737.66;1024120;28;20657;-76
2023/01/24 01:40:09;;;;;;;16.58;13.02;;;;;;;2.06;100.00;103744.59;1031186;28;20293;-75
2023/01/24 01:40:41;;;;;;;15.85;12.43;;;;;;;2.03;100.00;103736.91;1031393;28;20324;-76
2023/01/24 01:41:13;;;;;;;17.58;14.70;;;;;;;2.02;100.00;103737.84;1027264;28;20305;-75
2023/01/24 01:41:48;;;;;;;17.98;13.00;;;;;;;1.96;100.00;103738.19;1023505;29;20355;-75
2023/01/24 01:42:19;;;;;;;19.30;15.15;;;;;;;2.02;100.00;103743.09;1023267;29;20307;-76
2023/01/24 01:42:53;;;;;;;18.13;15.60;;;;;;;2.00;100.00;103739.72;1020094;29;20383;-76
2023/01/24 01:43:28;;;;;;;19.95;15.32;;;;;;;1.95;100.00;103739.13;1024471;28;20306;-75
2023/01/24 01:44:40;;;;;;;19.23;15.48;;;;;;;1.97;100.00;103739.88;1025089;28;20302;-76
2023/01/24 01:45:37;;;;;;;18.00;13.75;;;;;;;2.04;100.00;103735.97;1027270;28;20290;-75
2023/01/24 01:46:24;;;;;;;18.83;14.95;;;;;;;1.98;100.00;103744.22;1027534;28;20094;-75
2023/01/24 01:46:55;;;;;;;17.58;14.43;;;;;;;2.04;100.00;103743.00;1021209;29;20303;-75
2023/01/24 01:47:32;;;;;;;21.80;15.05;;;;;;;2.03;100.00;103739.53;1019397;29;20306;-76
2023/01/24 01:48:52;;;;;;;17.40;14.23;;;;;;;2.10;100.00;103738.22;1013115;29;20303;-75
2023/01/24 01:49:26;;;;;;;17.70;12.82;;;;;;;2.13;100.00;103743.31;1018758;29;20306;-75
2023/01/24 01:50:26;;;;;;;16.73;12.35;;;;;;;2.11;100.00;103746.97;1022172;29;20661;-76
2023/01/24 01:51:02;;;;;;;18.15;11.65;;;;;;;2.06;100.00;103736.72;1017456;29;20311;-75
2023/01/24 01:51:45;;;;;;;17.83;11.90;;;;;;;2.06;100.00;103739.34;1011852;29;20648;-75
2023/01/24 01:52:17;;;;;;;15.25;11.98;;;;;;;2.07;100.00;103742.81;1018197;29;20303;-76
2023/01/24 01:52:50;;;;;;;17.17;12.18;;;;;;;2.02;99.98;103740.47;1015794;29;20356;-76
2023/01/24 01:53:23;;;;;;;13.98;7.50;;;;;;;2.04;100.00;103741.22;1021196;28;20306;-76
2023/01/24 01:54:13;;;;;;;16.40;10.50;;;;;;;2.06;100.00;103738.50;1024226;28;20311;-75
2023/01/24 01:54:45;;;;;;;14.63;10.30;;;;;;;1.96;100.00;103738.19;1030426;28;20562;-76
2023/01/24 01:55:19;;;;;;;13.55;9.55;;;;;;;2.00;100.00;103739.72;1031660;28;20329;-75
2023/01/24 01:55:56;;;;;;;14.05;9.38;;;;;;;1.99;100.00;103732.75;1031275;28;20293;-75
2023/01/24 01:56:51;;;;;;;13.77;10.23;;;;;;;2.02;100.00;103743.09;1027348;28;20313;-75
2023/01/24 01:57:27;;;;;;;19.55;11.30;;;;;;;2.04;100.00;103735.97;1031329;28;20302;-75
2023/01/24 01:58:00;;;;;;;19.77;10.77;;;;;;;2.05;100.00;103742.06;1027350;28;20816;-75
2023/01/24 01:58:32;;;;;;;19.17;11.48;;;;;;;2.06;100.00;103741.97;1026241;28;20329;-75
2023/01/24 01:59:08;;;;;;;16.25;12.60;;;;;;;2.08;100.00;103739.25;1027237;28;20297;-75
2023/01/24 02:00:11;;;;;;;17.73;12.15;;;;;;;2.00;100.00;103736.22;1024852;28;20840;-74
2023/01/24 02:00:49;;;;;;;16.65;10.63;;;;;;;1.98;100.00;103736.31;1026269;28;20317;-75
2023/01/24 02:01:21;;;;;;;15.68;10.55;;;;;;;2.01;100.00;103728.25;1024633;28;20295;-76
2023/01/24 02:01:55;;;;;;;17.20;10.45;;;;;;;1.96;100.00;103732.09;1023465;29;20306;-75
2023/01/24 02:02:27;;;;;;;16.23;10.85;;;;;;;1.97;100.00;103733.78;1020665;29;20288;-75
2023/01/24 02:03:38;;;;;;;15.50;11.60;;;;;;;1.98;100.00;103736.31;1017523;29;20355;-77
2023/01/24 02:04:14;;;;;;;15.88;10.65;;;;;;;1.97;100.00;103734.63;1018420;29;20823;-80
2023/01/24 02:04:55;;;;;;;18.02;10.40;;;;;;;1.94;100.00;103736.59;1020017;29;22058;-75
2023/01/24 02:05:26;;;;;;;;;;;;;;;1.91;100.00;103729.72;1015866;29;20304;-75
2023/01/24 02:05:59;;;;;;;15.32;8.98;;;;;;;1.89;100.00;103736.00;1017558;29;19996;-75
2023/01/24 02:07:06;;;;;;;15.73;8.70;;;;;;;1.87;100.00;103730.81;1017326;29;20298;-75
2023/01/24 02:07:44;;;;;;;19.70;10.10;;;;;;;1.85;100.00;103737.94;1012584;29;20656;-75
2023/01/24 02:08:20;;;;;;;19.65;11.52;;;;;;;1.88;100.00;103729.88;1009275;29;20305;-75
2023/01/24 02:08:53;;;;;;;17.45;10.00;;;;;;;1.89;100.00;103736.84;1003670;29;20042;-75
2023/01/24 02:09:27;;;;;;;17.13;10.75;;;;;;;1.89;100.00;103736.00;1013102;29;20819;-75
2023/01/24 02:09:59;;;;;;;21.40;12.90;;;;;;;1.86;100.00;103729.13;1020897;29;20789;-75
2023/01/24 02:11:37;;;;;;;18.65;11.57;;;;;;;1.91;100.00;103732.34;1024245;28;20299;-75
2023/01/24 02:11:39;;;;;;;16.40;9.52;;;;;;;1.90;100.00;103733.28;1026577;28;20306;-75
2023/01/24 02:12:18;;;;;;;19.83;12.45;;;;;;;1.91;100.00;103731.50;1024942;28;20915;-75
2023/01/24 02:12:53;;;;;;;19.25;11.13;;;;;;;1.89;100.00;103736.84;1023141;29;20299;-75
2023/01/24 02:13:25;;;;;;;14.77;9.55;;;;;;;1.88;100.00;103729.88;1015444;29;20686;-75
2023/01/24 02:16:02;;;;;;;18.38;11.65;;;;;;;1.91;100.00;103728.84;1021269;29;20299;-75
2023/01/24 02:16:03;;;;;;;18.02;9.90;;;;;;;1.85;100.00;103732.69;1023255;29;20393;-75
2023/01/24 02:16:35;;;;;;;18.88;13.18;;;;;;;1.92;100.00;103730.56;1023094;29;20330;-75
2023/01/24 02:17:06;;;;;;;20.30;12.13;;;;;;;1.78;100.00;103728.72;1024377;28;20043;-75
2023/01/24 02:17:38;;;;;;;19.95;13.27;;;;;;;1.84;100.00;103728.38;1030623;28;20289;-76
2023/01/24 02:18:10;;;;;;;20.02;11.90;;;;;;;1.89;100.00;103726.31;1027236;28;20301;-75
2023/01/24 02:18:42;;;;;;;16.85;11.00;;;;;;;1.90;100.00;103728.00;1022778;29;20307;-76
2023/01/24 02:19:25;;;;;;;18.45;12.65;;;;;;;1.89;100.00;103731.56;1024182;28;20287;-75
2023/01/24 02:20:02;;;;;;;19.88;9.80;;;;;;;1.88;100.00;103729.88;1023110;29;20302;-75
2023/01/24 02:20:40;;;;;;;19.60;12.20;;;;;;;1.85;100.00;103730.91;1025949;28;20294;-75
2023/01/24 02:21:15;;;;;;;19.85;12.48;;;;;;;1.83;100.00;103731.94;1023120;29;20354;-76
2023/01/24 02:21:49;;;;;;;20.35;12.70;;;;;;;1.89;100.00;103730.72;1019547;29;20414;-76
2023/01/24 02:22:38;;;;;;;17.98;12.68;;;;;;;1.85;100.00;103730.91;1019459;29;20307;-75
2023/01/24 02:23:36;;;;;;;21.75;13.50;;;;;;;1.90;100.00;103733.28;1022708;29;20302;-75
2023/01/24 02:24:38;;;;;;;16.80;11.13;;;;;;;1.91;100.00;103732.34;1027359;28;20697;-75
2023/01/24 02:25:36;;;;;;;20.20;13.48;;;;;;;1.89;100.00;103726.31;1012682;28;20364;-76
2023/01/24 02:26:15;;;;;;;19.15;12.18;;;;;;;1.92;100.00;103726.16;1023474;29;20824;-76
2023/01/24 02:26:47;;;;;;;16.88;12.25;;;;;;;1.98;100.00;103725.81;1020078;29;20295;-76
2023/01/24 02:27:18;;;;;;;18.25;11.98;;;;;;;1.92;100.00;103731.44;1019387;29;20307;-76
2023/01/24 02:27:50;;;;;;;19.50;13.70;;;;;;;1.90;100.00;103722.75;1015113;29;20814;-76
2023/01/24 02:28:22;;;;;;;21.08;12.95;;;;;;;1.88;100.00;103729.88;1015295;29;20368;-76
2023/01/24 02:29:06;;;;;;;18.20;12.52;;;;;;;1.85;100.00;103732.69;1015868;29;20311;-75
2023/01/24 02:29:37;;;;;;;20.25;13.70;;;;;;;1.81;100.00;103728.56;1017422;29;20304;-75
2023/01/24 02:30:10;;;;;;;21.50;12.48;;;;;;;1.81;100.00;103733.81;1020830;29;20398;-76
2023/01/24 02:30:42;;;;;;;16.92;11.10;;;;;;;1.91;100.00;103729.72;1019078;29;20813;-75
2023/01/24 02:31:13;;;;;;;17.35;11.77;;;;;;;1.90;100.00;103733.28;1019523;29;20833;-75
2023/01/24 02:31:53;;;;;;;19.20;12.38;;;;;;;1.91;100.00;103721.81;1019410;29;20322;-75
2023/01/24 02:32:25;;;;;;;20.02;14.02;;;;;;;1.92;100.00;103731.44;1017137;29;20300;-75
2023/01/24 02:32:57;;;;;;;21.30;13.30;;;;;;;1.93;100.00;103725.25;1019431;29;20043;-75
2023/01/24 02:33:30;;;;;;;19.40;13.50;;;;;;;1.91;100.00;103727.06;1011311;29;20698;-76
2023/01/24 02:34:01;;;;;;;21.20;13.02;;;;;;;1.92;100.00;103726.16;1019464;29;20312;-80
2023/01/24 02:34:33;;;;;;;21.15;13.35;;;;;;;1.92;100.00;103731.44;1021582;28;20393;-80
2023/01/24 02:35:05;;;;;;;17.63;12.35;;;;;;;1.85;100.00;103730.06;1022545;29;20306;-80
2023/01/24 02:35:37;;;;;;;21.45;13.23;;;;;;;1.82;100.00;103735.50;1012164;29;20308;-80
2023/01/24 02:36:18;;;;;;;24.55;14.93;;;;;;;1.87;100.00;103733.44;1015952;29;20674;-80
2023/01/24 02:37:00;;;;;;;18.95;13.07;;;;;;;1.86;100.00;103731.75;1022933;28;20307;-81